createdAt,value
2024-02-05T00:04:40.927Z,9.74
2024-02-05T00:09:43.379Z,9.75
2024-02-05T00:22:14.446Z,9.83
2024-02-05T00:27:16.520Z,9.85
2024-02-05T00:32:18.584Z,9.74
2024-02-05T00:37:20.661Z,9.80
2024-02-05T00:42:22.870Z,9.85
2024-02-05T00:47:24.931Z,9.88
2024-02-05T00:52:29.057Z,9.86
2024-02-05T00:57:31.852Z,9.75
2024-02-05T01:02:34.160Z,9.94
2024-02-05T01:07:36.304Z,9.97
2024-02-05T01:12:38.768Z,10.11
2024-02-05T01:17:41.000Z,10.13
2024-02-05T01:22:43.127Z,10.08
2024-02-05T01:27:45.333Z,9.99
2024-02-05T01:32:47.466Z,10.09
2024-02-05T01:37:49.612Z,10.09
2024-02-05T01:42:51.746Z,9.98
2024-02-05T01:47:54.471Z,10.20
2024-02-05T01:52:56.569Z,10.17
2024-02-05T01:57:59.412Z,10.12
2024-02-05T02:03:07.744Z,10.11
2024-02-05T02:08:11.924Z,10.17
2024-02-05T02:13:17.438Z,9.99
2024-02-05T02:18:23.902Z,10.10
2024-02-05T02:23:31.217Z,10.08
2024-02-05T02:28:33.498Z,10.06
2024-02-05T02:33:55.147Z,10.05
2024-02-05T02:39:12.518Z,10.10
2024-02-05T02:44:17.613Z,10.11
2024-02-05T02:49:20.033Z,10.08
2024-02-05T02:54:22.141Z,10.16
2024-02-05T02:59:24.148Z,10.16
2024-02-05T03:04:26.460Z,10.15
2024-02-05T03:09:28.794Z,10.13
2024-02-05T03:14:30.782Z,10.17
2024-02-05T03:19:33.378Z,10.18
2024-02-05T03:24:35.424Z,10.31
2024-02-05T03:29:37.599Z,10.35
2024-02-05T03:34:39.788Z,10.20
2024-02-05T03:39:41.893Z,10.20
2024-02-05T03:44:44.011Z,10.35
2024-02-05T03:49:46.217Z,10.26
2024-02-05T03:54:48.862Z,10.32
2024-02-05T03:59:51.065Z,10.21
2024-02-05T04:04:53.248Z,10.28
2024-02-05T04:09:55.345Z,10.44
2024-02-05T04:14:57.652Z,10.38
2024-02-05T04:19:59.768Z,10.38
2024-02-05T04:25:02.214Z,10.29
2024-02-05T04:30:04.914Z,10.32
2024-02-05T04:35:09.026Z,10.39
2024-02-05T04:40:11.505Z,10.21
2024-02-05T04:45:13.713Z,10.16
2024-02-05T04:50:15.943Z,10.08
2024-02-05T04:55:18.182Z,10.22
2024-02-05T05:00:23.461Z,10.18
2024-02-05T05:05:25.612Z,10.16
2024-02-05T05:10:27.867Z,10.08
2024-02-05T05:15:32.066Z,10.14
2024-02-05T05:20:39.991Z,10.03
2024-02-05T05:25:42.118Z,10.12
2024-02-05T05:30:45.384Z,10.06
2024-02-05T05:35:47.417Z,10.09
2024-02-05T05:40:49.509Z,9.97
2024-02-05T05:45:51.553Z,10.00
2024-02-05T05:50:53.582Z,10.08
2024-02-05T05:55:55.676Z,10.04
2024-02-05T06:00:57.819Z,10.06
2024-02-05T06:06:06.001Z,10.12
2024-02-05T06:11:08.310Z,10.13
2024-02-05T06:16:10.501Z,10.21
2024-02-05T06:21:12.851Z,9.99
2024-02-05T06:26:14.934Z,10.11
2024-02-05T06:31:17.664Z,10.02
2024-02-05T06:36:19.816Z,9.93
2024-02-05T06:41:21.916Z,10.01
2024-02-05T06:46:24.192Z,10.22
2024-02-05T06:51:26.410Z,10.08
2024-02-05T06:56:28.431Z,10.03
2024-02-05T07:01:30.550Z,10.03
2024-02-05T07:06:33.004Z,10.02
2024-02-05T07:11:35.068Z,10.00
2024-02-05T07:16:37.152Z,9.83
2024-02-05T07:21:39.453Z,9.82
2024-02-05T07:26:41.620Z,9.80
2024-02-05T07:31:43.805Z,9.76
2024-02-05T07:36:45.900Z,9.97
2024-02-05T07:41:48.154Z,9.96
2024-02-05T07:46:50.183Z,10.06
2024-02-05T07:51:52.943Z,10.19
2024-02-05T07:56:58.267Z,10.30
2024-02-05T08:02:01.431Z,10.43
2024-02-05T08:07:05.820Z,10.45
2024-02-05T08:12:09.209Z,10.75
2024-02-05T08:17:11.394Z,10.90
2024-02-05T08:22:13.596Z,10.92
2024-02-05T08:27:15.677Z,10.70
2024-02-05T08:32:19.184Z,10.48
2024-02-05T08:37:21.508Z,10.66
2024-02-05T08:42:32.065Z,10.53
2024-02-05T08:47:35.663Z,10.48
2024-02-05T08:52:39.346Z,10.50
2024-02-05T08:57:44.473Z,10.58
2024-02-05T09:02:50.195Z,10.60
2024-02-05T09:07:54.163Z,10.76
2024-02-05T09:12:56.361Z,10.88
2024-02-05T09:17:58.700Z,10.73
2024-02-05T09:23:00.856Z,10.54
2024-02-05T09:28:02.944Z,10.82
2024-02-05T09:33:05.332Z,10.72
2024-02-05T09:38:08.514Z,10.77
2024-02-05T09:43:12.239Z,10.69
2024-02-05T09:48:27.376Z,10.71
2024-02-05T09:53:35.424Z,10.69
2024-02-05T09:58:37.617Z,10.83
2024-02-05T10:03:40.157Z,11.07
2024-02-05T10:08:42.941Z,11.09
2024-02-05T10:13:45.667Z,11.06
2024-02-05T10:18:47.763Z,11.11
2024-02-05T10:23:57.505Z,11.32
2024-02-05T10:29:07.992Z,11.17
2024-02-05T10:34:15.318Z,11.08
2024-02-05T10:39:24.279Z,11.23
2024-02-05T10:44:37.980Z,11.46
2024-02-05T10:49:44.971Z,11.57
2024-02-05T10:54:49.479Z,11.75
2024-02-05T10:59:52.009Z,11.54
2024-02-05T11:04:57.210Z,11.66
2024-02-05T11:10:02.800Z,11.61
2024-02-05T11:15:11.463Z,11.68
2024-02-05T11:20:14.792Z,11.52
2024-02-05T11:25:18.492Z,11.32
2024-02-05T11:30:20.620Z,11.56
2024-02-05T11:35:30.613Z,11.53
2024-02-05T11:40:34.478Z,11.62
2024-02-05T11:45:37.313Z,11.60
2024-02-05T11:50:39.585Z,11.68
2024-02-05T11:55:42.606Z,11.60
2024-02-05T12:00:44.726Z,11.80
2024-02-05T12:05:46.910Z,11.89
2024-02-05T12:10:49.569Z,11.88
2024-02-05T12:15:51.711Z,11.87
2024-02-05T12:21:00.201Z,11.91
2024-02-05T12:26:03.867Z,11.85
2024-02-05T12:31:06.227Z,11.69
2024-02-05T12:36:09.163Z,11.84
2024-02-05T12:41:11.415Z,11.85
2024-02-05T12:46:14.495Z,11.89
2024-02-05T12:51:17.114Z,11.73
2024-02-05T12:56:19.317Z,11.83
2024-02-05T13:01:23.437Z,11.89
2024-02-05T13:06:27.046Z,11.93
2024-02-05T13:11:32.364Z,12.02
2024-02-05T13:16:35.670Z,11.85
2024-02-05T13:21:37.816Z,11.75
2024-02-05T13:26:41.663Z,11.84
2024-02-05T13:31:44.792Z,11.97
2024-02-05T13:36:47.414Z,11.84
2024-02-05T13:41:49.468Z,11.88
2024-02-05T13:46:51.544Z,12.11
2024-02-05T13:51:53.740Z,11.93
2024-02-05T13:56:56.005Z,11.97
2024-02-05T14:01:58.275Z,11.77
2024-02-05T14:07:00.654Z,12.00
2024-02-05T14:12:02.734Z,12.04
2024-02-05T14:17:08.225Z,12.00
2024-02-05T14:22:10.741Z,12.08
2024-02-05T14:27:13.159Z,12.14
2024-02-05T14:32:15.544Z,11.99
2024-02-05T14:37:17.580Z,11.93
2024-02-05T14:42:19.689Z,11.87
2024-02-05T14:47:21.806Z,11.65
2024-02-05T14:52:25.125Z,11.49
2024-02-05T14:57:27.982Z,11.44
2024-02-05T15:02:30.023Z,11.12
2024-02-05T15:08:00.316Z,11.16
2024-02-05T15:13:03.547Z,11.02
2024-02-05T15:18:07.726Z,10.98
2024-02-05T15:23:09.854Z,10.85
2024-02-05T15:28:11.964Z,10.72
2024-02-05T15:33:16.997Z,10.58
2024-02-05T15:38:19.143Z,10.33
2024-02-05T15:43:21.292Z,10.16
2024-02-05T15:48:23.531Z,10.17
2024-02-05T15:53:25.663Z,9.89
2024-02-05T15:58:27.823Z,9.88
2024-02-05T16:03:30.268Z,9.68
2024-02-05T16:08:32.368Z,9.55
2024-02-05T16:13:35.217Z,9.34
2024-02-05T16:18:37.640Z,9.08
2024-02-05T16:23:39.648Z,8.97
2024-02-05T16:28:41.693Z,8.79
2024-02-05T16:33:43.821Z,8.69
2024-02-05T16:38:47.741Z,8.42
2024-02-05T16:43:49.899Z,8.61
2024-02-05T16:53:05.732Z,8.03
2024-02-05T16:58:07.693Z,8.04
2024-02-05T17:03:09.679Z,8.00
2024-02-05T17:08:13.260Z,8.00
2024-02-05T17:13:15.446Z,7.87
2024-02-05T17:18:18.007Z,7.88
2024-02-05T17:23:20.078Z,7.70
2024-02-05T17:28:22.589Z,7.85
2024-02-05T17:33:26.210Z,7.80
2024-02-05T17:38:28.589Z,7.73
2024-02-05T17:43:30.567Z,7.72
2024-02-05T17:48:35.265Z,7.74
2024-02-05T17:53:37.207Z,7.64
2024-02-05T17:58:40.023Z,7.52
2024-02-05T18:03:43.312Z,7.60
2024-02-05T18:08:45.355Z,7.55
2024-02-05T18:13:47.506Z,7.54
2024-02-05T18:18:49.650Z,7.37
2024-02-05T18:23:51.598Z,7.49
2024-02-05T18:28:55.945Z,7.48
2024-02-05T18:33:58.281Z,7.40
2024-02-05T18:39:00.589Z,7.38
2024-02-05T18:44:02.601Z,7.40
2024-02-05T18:49:05.295Z,7.28
2024-02-05T18:54:09.810Z,7.43
2024-02-05T18:59:11.819Z,7.47
2024-02-05T19:04:14.317Z,7.41
2024-02-05T19:09:18.516Z,7.52
2024-02-05T19:14:20.509Z,7.67
2024-02-05T19:19:24.776Z,7.69
2024-02-05T19:24:30.737Z,7.60
2024-02-05T19:29:34.693Z,7.64
2024-02-05T19:34:37.221Z,7.55
2024-02-05T19:39:42.100Z,7.41
2024-02-05T19:44:44.272Z,7.31
2024-02-05T19:49:47.010Z,7.29
2024-02-05T19:54:49.242Z,7.27
2024-02-05T19:59:51.400Z,7.23
2024-02-05T20:04:53.861Z,7.22
2024-02-05T20:09:56.153Z,7.34
2024-02-05T20:15:03.791Z,7.30
2024-02-05T20:20:08.159Z,7.26
2024-02-05T20:25:11.552Z,7.13
2024-02-05T20:30:15.075Z,7.08
2024-02-05T20:35:19.061Z,7.23
2024-02-05T20:40:21.288Z,7.20
2024-02-05T20:45:23.722Z,7.14
2024-02-05T20:50:30.627Z,7.25
2024-02-05T20:55:36.132Z,7.41
2024-02-05T21:00:38.311Z,7.41
2024-02-05T21:05:40.357Z,7.32
2024-02-05T21:10:42.649Z,7.46
2024-02-05T21:15:44.780Z,7.52
2024-02-05T21:20:46.824Z,7.44
2024-02-05T21:25:48.897Z,7.57
2024-02-05T21:30:50.969Z,7.65
2024-02-05T21:35:53.254Z,7.64
2024-02-05T21:40:55.378Z,7.63
2024-02-05T21:45:57.389Z,7.62
2024-02-05T21:50:59.350Z,7.55
2024-02-05T21:56:01.294Z,7.83
2024-02-05T22:01:03.344Z,7.65
2024-02-05T22:06:05.721Z,7.50
2024-02-05T22:11:07.651Z,7.64
2024-02-05T22:16:09.720Z,7.62
2024-02-05T22:21:11.693Z,7.41
2024-02-05T22:26:13.629Z,7.47
2024-02-05T22:31:15.717Z,7.58
2024-02-05T22:36:17.694Z,7.61
2024-02-05T22:41:19.650Z,7.54
2024-02-05T22:46:21.910Z,7.64
2024-02-05T22:51:23.867Z,7.65
2024-02-05T22:56:25.847Z,7.51
2024-02-05T23:01:28.468Z,7.79
2024-02-05T23:06:30.568Z,7.62
2024-02-05T23:11:32.576Z,7.62
2024-02-05T23:16:34.876Z,7.72
2024-02-05T23:21:36.994Z,7.62
2024-02-05T23:26:42.694Z,7.71
2024-02-05T23:31:44.962Z,7.89
2024-02-05T23:36:46.924Z,7.82
2024-02-05T23:41:48.855Z,7.82
2024-02-05T23:46:51.033Z,7.65
2024-02-05T23:51:53.033Z,7.75
2024-02-05T23:56:55.062Z,7.67
